Time;durP1;ratioP1;P1;durP2;ratioP2;P2;SDS_P1;SDS_P2;PMS_P1;PMS_P2;Temp;Humidity;BMP_temperature;BMP_pressure;BME280_temperature;BME280_humidity;BME280_pressure;Samples;Min_cycle;Max_cycle;Signal;HPM_P1;HPM_P2
2022/08/02 00:00:41;;;;;;;3.97;2.00;;;18.10;99.90;;;;;;5019610;28;20220;-51
2022/08/02 00:03:08;;;;;;;7.03;1.50;;;18.20;99.90;;;;;;5018917;28;20213;-52
2022/08/02 00:05:35;;;;;;;3.30;1.80;;;18.30;99.90;;;;;;5019924;28;20315;-51
2022/08/02 00:08:02;;;;;;;4.90;1.40;;;18.20;99.90;;;;;;5019168;28;20589;-51
2022/08/02 00:10:33;;;;;;;5.50;1.70;;;18.20;99.90;;;;;;5050061;28;20201;-50
2022/08/02 00:13:07;;;;;;;1.80;1.13;;;18.20;99.90;;;;;;5018799;28;20294;-50
2022/08/02 00:15:37;;;;;;;4.53;1.43;;;18.20;99.90;;;;;;5018348;28;20205;-52
2022/08/02 00:18:04;;;;;;;2.87;1.50;;;18.20;99.90;;;;;;5019532;28;20287;-54
2022/08/02 00:20:34;;;;;;;4.23;1.37;;;18.20;99.90;;;;;;5014882;28;20200;-52
2022/08/02 00:23:02;;;;;;;2.70;1.40;;;18.20;99.90;;;;;;5018091;28;20669;-52
2022/08/02 00:25:29;;;;;;;2.60;1.53;;;18.20;99.90;;;;;;5001627;28;20205;-51
2022/08/02 00:27:56;;;;;;;3.17;1.40;;;18.20;99.90;;;;;;5013769;28;20208;-54
2022/08/02 00:30:27;;;;;;;2.80;1.57;;;18.20;99.90;;;;;;5015305;28;20688;-50
2022/08/02 00:32:54;;;;;;;3.33;2.07;;;18.20;99.90;;;;;;5018592;28;20224;-49
2022/08/02 00:35:21;;;;;;;3.90;1.60;;;18.20;99.90;;;;;;5015966;28;20216;-50
2022/08/02 00:37:48;;;;;;;3.20;1.23;;;18.20;99.90;;;;;;5017709;28;20232;-51
2022/08/02 00:40:15;;;;;;;4.00;1.50;;;18.10;99.90;;;;;;5020323;28;20474;-51
2022/08/02 00:42:43;;;;;;;3.37;1.50;;;18.10;99.90;;;;;;5019063;28;20512;-51
2022/08/02 00:45:10;;;;;;;4.27;1.23;;;18.10;99.90;;;;;;5017572;28;20216;-50
2022/08/02 00:47:37;;;;;;;4.67;1.07;;;18.20;99.90;;;;;;5018800;28;20668;-52
2022/08/02 00:50:08;;;;;;;4.37;1.40;;;18.20;99.90;;;;;;5018897;28;20770;-50
2022/08/02 00:52:34;;;;;;;3.13;1.30;;;18.10;99.90;;;;;;5022854;28;20224;-52
2022/08/02 00:55:02;;;;;;;2.53;1.30;;;18.10;99.90;;;;;;5022319;28;20624;-50
2022/08/02 00:57:32;;;;;;;4.10;1.43;;;18.10;99.90;;;;;;5023732;28;20608;-52
2022/08/02 00:59:59;;;;;;;1.63;1.20;;;18.10;99.90;;;;;;5021879;28;20695;-50
2022/08/02 01:02:26;;;;;;;6.23;1.57;;;18.00;99.90;;;;;;5022852;28;20628;-50
2022/08/02 01:04:53;;;;;;;3.03;1.10;;;18.00;99.90;;;;;;5024115;28;20633;-50
2022/08/02 01:07:20;;;;;;;2.63;1.47;;;18.00;99.90;;;;;;5024112;28;20673;-51
2022/08/02 01:09:50;;;;;;;8.80;1.30;;;18.00;99.90;;;;;;5022367;28;20709;-51
2022/08/02 01:12:21;;;;;;;2.43;1.27;;;17.90;99.90;;;;;;5022035;28;20617;-50
2022/08/02 01:14:54;;;;;;;7.00;1.37;;;17.90;99.90;;;;;;5021845;28;20251;-51
2022/08/02 01:17:40;;;;;;;2.73;1.30;;;17.90;99.90;;;;;;5022182;28;20196;-51
2022/08/02 01:20:25;;;;;;;2.97;1.33;;;17.90;99.90;;;;;;5017970;28;20540;-52
2022/08/02 01:23:11;;;;;;;3.87;1.17;;;17.90;99.90;;;;;;5022529;28;20277;-51
2022/08/02 01:25:38;;;;;;;4.73;1.37;;;17.90;99.90;;;;;;5021711;28;20223;-51
2022/08/02 01:28:17;;;;;;;3.20;1.20;;;17.90;99.90;;;;;;5021666;28;20212;-51
2022/08/02 01:30:47;;;;;;;2.10;1.13;;;17.80;99.90;;;;;;5022394;28;20214;-51
2022/08/02 01:33:19;;;;;;;2.17;1.30;;;17.80;99.90;;;;;;5024044;28;20306;-51
2022/08/02 01:35:52;;;;;;;2.03;1.00;;;17.90;99.90;;;;;;5021355;28;20295;-49
2022/08/02 01:38:40;;;;;;;6.00;1.10;;;17.90;99.90;;;;;;5019144;28;20298;-52
2022/08/02 01:41:11;;;;;;;2.60;1.10;;;17.80;99.90;;;;;;5021799;28;20221;-51
2022/08/02 01:43:41;;;;;;;2.40;1.00;;;17.90;99.90;;;;;;5022340;28;20598;-50
2022/08/02 01:46:11;;;;;;;3.07;1.27;;;17.70;99.90;;;;;;5020965;28;20215;-51
2022/08/02 01:48:44;;;;;;;3.17;1.50;;;17.60;99.90;;;;;;5020318;28;20208;-50
2022/08/02 01:51:17;;;;;;;2.77;1.70;;;17.60;99.90;;;;;;5020057;28;20246;-51
2022/08/02 01:53:53;;;;;;;2.43;1.30;;;17.60;99.90;;;;;;5021277;28;20227;-50
2022/08/02 01:56:21;;;;;;;3.73;1.77;;;17.60;99.90;;;;;;5021568;28;20253;-51
2022/08/02 01:58:48;;;;;;;3.10;1.77;;;17.40;99.90;;;;;;5019660;28;20218;-51
2022/08/02 02:01:20;;;;;;;5.73;1.90;;;17.60;99.90;;;;;;5018442;28;20295;-50
2022/08/02 02:03:47;;;;;;;4.03;1.67;;;17.60;99.90;;;;;;5019880;28;20201;-50
2022/08/02 02:06:16;;;;;;;4.50;1.93;;;17.60;99.90;;;;;;5004444;28;20208;-50
2022/08/02 02:08:44;;;;;;;5.93;1.80;;;17.60;99.90;;;;;;5021738;28;20242;-50
2022/08/02 02:11:22;;;;;;;10.63;3.30;;;17.50;99.90;;;;;;5018961;28;20233;-51
2022/08/02 02:14:11;;;;;;;4.57;1.70;;;17.50;99.90;;;;;;5020740;28;20762;-51
2022/08/02 02:16:41;;;;;;;2.77;1.90;;;17.30;99.90;;;;;;5020477;28;20198;-51
2022/08/02 02:19:09;;;;;;;4.20;1.87;;;17.40;99.90;;;;;;5021210;28;20246;-51
2022/08/02 02:21:36;;;;;;;2.70;1.70;;;17.40;99.90;;;;;;5020815;28;20229;-49
2022/08/02 02:24:10;;;;;;;3.23;2.00;;;17.40;99.90;;;;;;5021141;28;20612;-51
2022/08/02 02:26:39;;;;;;;3.17;2.20;;;17.50;99.90;;;;;;5021217;28;20206;-50
2022/08/02 02:29:20;;;;;;;3.30;1.80;;;17.40;99.90;;;;;;5049517;28;20232;-50
2022/08/02 02:31:51;;;;;;;4.43;1.80;;;17.40;99.90;;;;;;5051781;28;20231;-51
2022/08/02 02:34:28;;;;;;;3.60;1.90;;;17.40;99.90;;;;;;5020493;28;20226;-50
2022/08/02 02:36:59;;;;;;;3.67;1.73;;;17.40;99.90;;;;;;5021099;28;20657;-51
2022/08/02 02:39:27;;;;;;;3.00;2.13;;;17.30;99.90;;;;;;5020147;28;20213;-50
2022/08/02 02:42:00;;;;;;;2.13;1.93;;;17.30;99.90;;;;;;5019011;28;20272;-53
2022/08/02 02:44:28;;;;;;;3.17;1.80;;;17.30;99.90;;;;;;5020289;28;20684;-50
2022/08/02 02:46:56;;;;;;;2.87;2.10;;;17.20;99.90;;;;;;5019967;28;20248;-51
2022/08/02 02:49:25;;;;;;;5.20;1.83;;;17.10;99.90;;;;;;5016503;28;20247;-51
2022/08/02 02:51:54;;;;;;;4.73;2.27;;;17.00;99.90;;;;;;5021121;28;20209;-51
2022/08/02 02:54:26;;;;;;;3.10;1.67;;;17.10;99.90;;;;;;5021356;28;20715;-51
2022/08/02 02:57:03;;;;;;;3.77;2.30;;;17.10;99.90;;;;;;5050925;28;20284;-52
2022/08/02 02:59:33;;;;;;;4.80;2.23;;;17.10;99.90;;;;;;5019583;28;20209;-51
2022/08/02 03:02:01;;;;;;;4.87;2.00;;;17.00;99.90;;;;;;5019918;28;20228;-52
2022/08/02 03:04:30;;;;;;;3.20;2.07;;;16.90;99.90;;;;;;5026899;28;20219;-51
2022/08/02 03:07:20;;;;;;;2.50;2.10;;;17.00;99.90;;;;;;5019368;28;20300;-51
2022/08/02 03:09:47;;;;;;;7.63;2.20;;;16.90;99.90;;;;;;5019605;28;20208;-52
2022/08/02 03:12:24;;;;;;;4.33;2.20;;;16.90;99.90;;;;;;5019438;28;20708;-51
2022/08/02 03:15:04;;;;;;;3.27;2.60;;;16.80;99.90;;;;;;5025773;28;20225;-50
2022/08/02 03:17:41;;;;;;;5.17;2.40;;;16.80;99.90;;;;;;5017327;28;20232;-52
2022/08/02 03:20:17;;;;;;;5.43;2.17;;;16.90;99.90;;;;;;5020902;28;20202;-51
2022/08/02 03:22:45;;;;;;;3.90;2.43;;;16.90;99.90;;;;;;5020126;28;20203;-51
2022/08/02 03:25:16;;;;;;;3.73;2.40;;;16.80;99.90;;;;;;5018670;28;20207;-56
2022/08/02 03:27:44;;;;;;;5.43;2.30;;;17.00;99.90;;;;;;5019409;28;20202;-51
2022/08/02 03:30:13;;;;;;;4.57;2.50;;;17.10;99.90;;;;;;5020056;28;20211;-50
2022/08/02 03:32:43;;;;;;;4.00;2.53;;;17.20;99.90;;;;;;5019218;28;20210;-50
2022/08/02 03:35:12;;;;;;;3.93;2.13;;;17.20;99.90;;;;;;5020233;28;20248;-50
2022/08/02 03:37:39;;;;;;;5.57;2.17;;;17.20;99.90;;;;;;5019636;28;20233;-51
2022/08/02 03:40:13;;;;;;;3.83;2.70;;;17.30;99.90;;;;;;5017988;28;20214;-51
2022/08/02 03:42:41;;;;;;;4.83;2.23;;;17.20;99.90;;;;;;5019201;28;20329;-51
2022/08/02 03:45:11;;;;;;;6.87;2.43;;;17.20;99.90;;;;;;5017152;28;20721;-50
2022/08/02 03:47:43;;;;;;;5.70;2.27;;;17.20;99.90;;;;;;5019389;28;20243;-51
2022/08/02 03:50:12;;;;;;;4.90;2.43;;;17.10;99.90;;;;;;5019729;28;20246;-49
2022/08/02 03:52:44;;;;;;;2.30;1.70;;;17.20;99.90;;;;;;5019331;28;20690;-51
2022/08/02 03:55:12;;;;;;;7.17;2.43;;;17.10;99.90;;;;;;5018757;28;20236;-50
2022/08/02 03:57:41;;;;;;;3.33;2.30;;;17.10;99.90;;;;;;5020654;28;20618;-49
2022/08/02 04:00:12;;;;;;;3.30;2.07;;;17.10;99.90;;;;;;5018707;28;20206;-50
2022/08/02 04:02:39;;;;;;;4.50;2.10;;;17.10;99.90;;;;;;5014283;28;20215;-51
2022/08/02 04:05:07;;;;;;;5.67;2.40;;;17.10;99.90;;;;;;5018175;28;20287;-51
2022/08/02 04:07:34;;;;;;;4.37;2.33;;;17.10;99.90;;;;;;5020645;28;20656;-51
2022/08/02 04:10:22;;;;;;;6.40;1.90;;;17.10;99.90;;;;;;5018837;28;20212;-52
2022/08/02 04:12:49;;;;;;;2.37;2.07;;;17.10;99.90;;;;;;5017666;28;20239;-50
2022/08/02 04:15:17;;;;;;;4.40;2.27;;;17.00;99.90;;;;;;5020356;28;20258;-51
2022/08/02 04:17:56;;;;;;;3.37;2.10;;;17.00;99.90;;;;;;5018537;28;20198;-52
2022/08/02 04:20:30;;;;;;;5.63;2.33;;;17.00;99.90;;;;;;5026101;28;20205;-51
2022/08/02 04:22:59;;;;;;;6.00;2.20;;;17.00;99.90;;;;;;5020297;28;20206;-50
2022/08/02 04:25:34;;;;;;;6.37;2.23;;;17.00;99.90;;;;;;5020076;28;20573;-51
2022/08/02 04:28:08;;;;;;;4.07;1.93;;;17.00;99.90;;;;;;5023455;28;20208;-51
2022/08/02 04:30:48;;;;;;;3.03;2.30;;;17.00;99.90;;;;;;5021916;28;20278;-51
2022/08/02 04:33:16;;;;;;;3.43;1.90;;;17.10;99.90;;;;;;5030034;28;20232;-50
2022/08/02 04:35:44;;;;;;;5.13;2.43;;;17.10;99.90;;;;;;5021750;28;20212;-51
2022/08/02 04:38:15;;;;;;;6.03;2.30;;;17.00;99.90;;;;;;5023152;28;20616;-52
2022/08/02 04:40:54;;;;;;;3.37;2.30;;;17.00;99.90;;;;;;5022381;28;20236;-51
2022/08/02 04:43:21;;;;;;;3.13;2.20;;;17.00;99.90;;;;;;5022999;28;20270;-51
2022/08/02 04:45:50;;;;;;;4.93;2.70;;;17.00;99.90;;;;;;5023217;28;20666;-50
2022/08/02 04:48:17;;;;;;;3.87;2.50;;;17.10;99.90;;;;;;5021431;28;20212;-51
2022/08/02 04:50:45;;;;;;;7.53;3.03;;;17.10;99.90;;;;;;5023524;28;20625;-50
2022/08/02 04:53:15;;;;;;;6.77;2.87;;;17.10;99.90;;;;;;5036899;28;20539;-50
2022/08/02 04:55:42;;;;;;;5.17;2.80;;;17.00;99.90;;;;;;5054610;28;20230;-50
2022/08/02 04:58:09;;;;;;;4.03;2.70;;;17.00;99.90;;;;;;5021869;28;20189;-52
2022/08/02 05:00:56;;;;;;;6.23;3.70;;;17.00;99.90;;;;;;5022405;28;20292;-51
2022/08/02 05:03:23;;;;;;;6.40;2.87;;;17.00;99.90;;;;;;5022123;28;20291;-51
2022/08/02 05:05:50;;;;;;;4.13;2.87;;;17.00;99.90;;;;;;5017314;28;20244;-51
2022/08/02 05:08:19;;;;;;;5.70;3.40;;;17.00;99.90;;;;;;5018380;28;20211;-51
2022/08/02 05:10:46;;;;;;;4.40;2.67;;;17.00;99.90;;;;;;5021615;28;20205;-50
2022/08/02 05:13:13;;;;;;;5.10;2.83;;;17.00;99.90;;;;;;5022890;28;20220;-51
2022/08/02 05:15:40;;;;;;;6.73;3.03;;;17.10;99.90;;;;;;5023453;28;20561;-51
2022/08/02 05:18:07;;;;;;;7.47;3.67;;;17.10;99.90;;;;;;5021949;28;20209;-49
2022/08/02 05:20:34;;;;;;;5.73;2.73;;;17.10;99.90;;;;;;5021886;28;20211;-52
2022/08/02 05:23:02;;;;;;;8.07;4.00;;;17.10;99.90;;;;;;5022733;28;20230;-51
2022/08/02 05:25:29;;;;;;;5.13;3.20;;;17.10;99.90;;;;;;5021213;28;20672;-50
2022/08/02 05:27:59;;;;;;;5.37;3.50;;;17.10;99.90;;;;;;5021783;28;20208;-51
2022/08/02 05:30:28;;;;;;;5.37;3.53;;;17.10;99.90;;;;;;5020121;28;20257;-51
2022/08/02 05:32:58;;;;;;;5.93;3.70;;;17.10;99.90;;;;;;5021720;28;20240;-51
2022/08/02 05:35:25;;;;;;;6.43;3.80;;;17.20;99.90;;;;;;5021423;28;20244;-52
2022/08/02 05:37:53;;;;;;;6.43;3.50;;;17.20;99.90;;;;;;5016401;28;20672;-50
2022/08/02 05:40:20;;;;;;;4.40;3.90;;;17.30;99.90;;;;;;5020668;28;20614;-50
2022/08/02 05:42:52;;;;;;;7.07;3.77;;;17.40;99.90;;;;;;5021585;28;20217;-51
2022/08/02 05:45:19;;;;;;;5.90;4.03;;;17.50;99.90;;;;;;5019616;28;20216;-52
2022/08/02 05:47:46;;;;;;;5.53;4.30;;;17.60;99.90;;;;;;5017074;28;20585;-51
2022/08/02 05:50:13;;;;;;;6.77;4.20;;;17.70;99.90;;;;;;5004558;28;20237;-51
2022/08/02 05:53:02;;;;;;;7.30;4.87;;;17.60;99.90;;;;;;5017518;28;20693;-50
2022/08/02 05:55:39;;;;;;;6.80;4.37;;;17.70;99.90;;;;;;5028579;28;20314;-51
2022/08/02 05:58:17;;;;;;;7.30;4.47;;;17.70;99.90;;;;;;5021807;28;20368;-51
2022/08/02 06:00:46;;;;;;;6.67;4.20;;;17.80;99.90;;;;;;5011907;28;20257;-50
2022/08/02 06:03:25;;;;;;;9.23;4.77;;;18.00;99.90;;;;;;5021250;28;20203;-50
2022/08/02 06:06:09;;;;;;;6.80;3.97;;;18.00;99.90;;;;;;5022263;28;20605;-50
2022/08/02 06:08:44;;;;;;;6.73;4.80;;;18.20;99.90;;;;;;5021785;28;20202;-50
2022/08/02 06:11:24;;;;;;;7.27;4.60;;;18.20;99.90;;;;;;5021007;28;20208;-52
2022/08/02 06:13:53;;;;;;;5.27;4.43;;;18.20;99.90;;;;;;5017776;28;20277;-50
2022/08/02 06:16:24;;;;;;;7.77;4.57;;;18.20;99.90;;;;;;5021573;28;20229;-51
2022/08/02 06:18:59;;;;;;;9.10;4.57;;;18.30;99.90;;;;;;5019439;28;20255;-52
2022/08/02 06:21:27;;;;;;;6.47;4.83;;;18.40;99.90;;;;;;5020467;28;20625;-50
2022/08/02 06:24:20;;;;;;;9.70;4.60;;;18.50;99.90;;;;;;5019198;28;20294;-50
2022/08/02 06:26:54;;;;;;;9.47;5.43;;;18.60;99.90;;;;;;5021251;28;20216;-52
2022/08/02 06:29:22;;;;;;;6.43;4.83;;;18.70;99.90;;;;;;5015440;28;20562;-52
2022/08/02 06:31:52;;;;;;;8.50;5.07;;;18.70;99.90;;;;;;5018444;28;20662;-52
2022/08/02 06:34:19;;;;;;;7.17;5.20;;;18.80;99.90;;;;;;5021270;28;20258;-49
2022/08/02 06:37:12;;;;;;;7.77;5.30;;;18.90;99.90;;;;;;5021063;28;20211;-51
2022/08/02 06:40:21;;;;;;;10.50;5.77;;;19.00;99.90;;;;;;5027865;28;20207;-49
2022/08/02 06:42:56;;;;;;;7.07;5.50;;;19.10;99.90;;;;;;5015443;28;20218;-51
2022/08/02 06:45:24;;;;;;;9.10;5.47;;;19.20;99.90;;;;;;5020485;28;20253;-52
2022/08/02 06:47:55;;;;;;;9.20;5.93;;;19.30;99.90;;;;;;5019989;28;20214;-51
2022/08/02 06:50:22;;;;;;;8.73;5.43;;;19.30;99.90;;;;;;5019478;28;20243;-52
2022/08/02 06:52:49;;;;;;;7.80;5.97;;;19.50;99.90;;;;;;5017227;28;20246;-51
2022/08/02 06:55:24;;;;;;;7.77;5.90;;;19.70;99.90;;;;;;5020460;28;20239;-52
2022/08/02 06:57:54;;;;;;;10.43;6.87;;;19.90;99.90;;;;;;5018925;28;20209;-51
2022/08/02 07:00:21;;;;;;;8.97;6.80;;;19.90;99.90;;;;;;5027670;28;20294;-51
2022/08/02 07:02:49;;;;;;;9.50;6.93;;;20.00;99.90;;;;;;5019279;28;20212;-53
2022/08/02 07:05:17;;;;;;;9.03;6.73;;;20.20;99.90;;;;;;5020803;28;20204;-49
2022/08/02 07:07:46;;;;;;;9.50;6.27;;;20.50;99.90;;;;;;5021040;28;20212;-51
2022/08/02 07:10:14;;;;;;;9.10;7.87;;;20.80;99.90;;;;;;5019877;28;20245;-51
2022/08/02 07:12:41;;;;;;;11.07;7.50;;;20.70;99.90;;;;;;5020875;28;20694;-50
2022/08/02 07:15:11;;;;;;;9.87;6.97;;;21.10;99.90;;;;;;5015491;28;20221;-52
2022/08/02 07:17:40;;;;;;;11.40;8.13;;;21.00;99.90;;;;;;5018659;28;20221;-50
2022/08/02 07:20:12;;;;;;;18.07;8.23;;;21.00;99.90;;;;;;5020070;28;20207;-51
2022/08/02 07:22:39;;;;;;;10.23;8.20;;;20.90;99.90;;;;;;5018904;28;20629;-51
2022/08/02 07:25:11;;;;;;;10.63;7.93;;;20.90;99.90;;;;;;5019793;28;20217;-52
2022/08/02 07:27:38;;;;;;;10.63;7.53;;;21.10;99.90;;;;;;5020209;28;20288;-53
2022/08/02 07:30:06;;;;;;;9.23;6.93;;;21.10;99.90;;;;;;5019385;28;20632;-51
2022/08/02 07:32:35;;;;;;;8.90;6.43;;;21.30;99.90;;;;;;5018874;28;20213;-52
2022/08/02 07:35:03;;;;;;;7.93;6.90;;;21.40;99.90;;;;;;5020340;28;20221;-50
2022/08/02 07:37:34;;;;;;;11.03;7.20;;;21.50;99.90;;;;;;5019315;28;20232;-51
2022/08/02 07:40:23;;;;;;;7.67;6.60;;;21.40;99.90;;;;;;5019413;28;20593;-51
2022/08/02 07:42:53;;;;;;;7.57;6.63;;;21.70;99.90;;;;;;5019978;28;20197;-50
2022/08/02 07:45:26;;;;;;;8.23;6.20;;;21.40;99.90;;;;;;5018261;28;20211;-52
2022/08/02 07:47:53;;;;;;;7.17;5.97;;;21.60;99.90;;;;;;5019274;28;20323;-52
2022/08/02 07:50:23;;;;;;;8.23;5.97;;;21.60;99.90;;;;;;5019818;28;20251;-53
2022/08/02 07:52:56;;;;;;;9.03;6.43;;;21.80;99.90;;;;;;5018573;28;20671;-52
2022/08/02 07:55:24;;;;;;;8.13;6.20;;;22.10;99.90;;;;;;5019027;28;20600;-57
2022/08/02 07:58:10;;;;;;;7.47;5.37;;;22.30;99.90;;;;;;5020770;28;20209;-52
2022/08/02 08:00:41;;;;;;;8.10;4.70;;;22.20;99.90;;;;;;5019176;28;20268;-51
2022/08/02 08:03:08;;;;;;;5.67;4.57;;;22.40;99.90;;;;;;5018028;28;20208;-52
2022/08/02 08:05:35;;;;;;;7.17;4.97;;;22.60;99.90;;;;;;5014578;28;20212;-51
2022/08/02 08:08:04;;;;;;;4.40;3.83;;;22.60;99.90;;;;;;5020124;28;20205;-51
2022/08/02 08:10:32;;;;;;;4.27;3.87;;;22.60;99.90;;;;;;5019850;28;20244;-51
2022/08/02 08:12:59;;;;;;;4.27;3.33;;;22.70;99.90;;;;;;5018790;28;20251;-51
2022/08/02 08:15:27;;;;;;;5.23;2.80;;;22.90;99.90;;;;;;5014174;28;20950;-52
2022/08/02 08:17:53;;;;;;;6.33;3.37;;;22.90;99.90;;;;;;5018099;28;20734;-53
2022/08/02 08:20:21;;;;;;;3.93;2.83;;;22.60;99.90;;;;;;5016003;28;20210;-52
2022/08/02 08:22:49;;;;;;;4.77;2.73;;;22.60;99.90;;;;;;5018386;28;20232;-50
2022/08/02 08:25:16;;;;;;;6.70;2.60;;;23.10;99.90;;;;;;5017389;28;20216;-50
2022/08/02 08:28:19;;;;;;;3.30;2.30;;;23.60;99.90;;;;;;5019586;28;20553;-52
2022/08/02 08:30:47;;;;;;;5.37;2.37;;;23.80;99.90;;;;;;5018992;28;20222;-52
2022/08/02 08:33:14;;;;;;;4.00;3.17;;;23.80;99.90;;;;;;5002175;28;20205;-54
2022/08/02 08:35:42;;;;;;;3.23;2.10;;;23.60;99.90;;;;;;5020195;28;20220;-52
2022/08/02 08:38:09;;;;;;;2.83;2.10;;;23.70;99.90;;;;;;5015698;28;20197;-50
2022/08/02 08:40:36;;;;;;;2.40;2.13;;;23.70;99.90;;;;;;5019276;28;20233;-52
2022/08/02 08:43:04;;;;;;;2.17;1.97;;;23.70;99.90;;;;;;5019187;28;20283;-52
2022/08/02 08:45:31;;;;;;;3.17;1.80;;;23.80;99.90;;;;;;5018533;28;20213;-53
2022/08/02 08:48:07;;;;;;;2.13;1.47;;;23.70;99.90;;;;;;5017839;28;20579;-51
2022/08/02 08:50:37;;;;;;;1.33;1.23;;;23.90;99.90;;;;;;5018956;28;20245;-55
2022/08/02 08:53:06;;;;;;;2.00;1.43;;;23.70;99.90;;;;;;5019430;28;20215;-50
2022/08/02 08:55:36;;;;;;;2.47;1.50;;;23.80;99.90;;;;;;5025703;28;20582;-54
2022/08/02 08:58:04;;;;;;;1.47;1.37;;;23.80;99.90;;;;;;5020298;28;20221;-51
2022/08/02 09:00:34;;;;;;;2.37;1.50;;;23.90;99.90;;;;;;5018714;28;20215;-50
2022/08/02 09:03:04;;;;;;;2.63;1.30;;;24.00;99.90;;;;;;5016381;28;20216;-53
2022/08/02 09:05:37;;;;;;;1.93;1.70;;;24.00;99.90;;;;;;5001983;28;20209;-51
2022/08/02 09:08:05;;;;;;;3.57;1.60;;;24.10;99.90;;;;;;5018849;28;20204;-51
2022/08/02 09:10:41;;;;;;;1.73;1.40;;;24.40;99.90;;;;;;5014898;28;20270;-51
2022/08/02 09:13:14;;;;;;;3.33;1.40;;;24.60;99.90;;;;;;5021683;28;20226;-51
2022/08/02 09:16:05;;;;;;;1.20;1.00;;;24.80;99.90;;;;;;5022025;28;20720;-53
2022/08/02 09:18:45;;;;;;;3.60;2.03;;;25.10;99.90;;;;;;5023272;28;20297;-51
2022/08/02 09:21:15;;;;;;;2.70;1.30;;;25.30;99.90;;;;;;5023306;28;20217;-53
2022/08/02 09:23:45;;;;;;;1.30;1.20;;;25.30;99.90;;;;;;5022802;28;20238;-51
2022/08/02 09:26:15;;;;;;;2.53;1.60;;;25.40;99.90;;;;;;5022116;28;20211;-54
2022/08/02 09:28:45;;;;;;;2.92;1.58;;;25.00;99.90;;;;;;5022056;28;20552;-54
2022/08/02 09:31:23;;;;;;;1.67;1.50;;;25.60;99.90;;;;;;5021156;28;20379;-55
2022/08/02 09:33:55;;;;;;;2.97;1.50;;;25.90;99.90;;;;;;5021084;28;20310;-55
2022/08/02 09:36:23;;;;;;;3.40;1.17;;;26.50;99.90;;;;;;5022800;28;20679;-54
2022/08/02 09:39:02;;;;;;;2.53;1.20;;;26.30;99.90;;;;;;5023074;28;20266;-53
2022/08/02 09:41:31;;;;;;;2.87;1.20;;;26.40;99.90;;;;;;5021490;28;20214;-54
2022/08/02 09:44:01;;;;;;;7.03;1.10;;;26.10;99.90;;;;;;5021230;28;20587;-53
2022/08/02 09:46:40;;;;;;;2.20;1.33;;;26.50;99.90;;;;;;5020540;28;20676;-53
2022/08/02 09:49:11;;;;;;;4.03;1.60;;;26.80;99.90;;;;;;5023090;28;20211;-52
2022/08/02 09:51:48;;;;;;;1.43;1.03;;;26.00;99.90;;;;;;5022021;28;20247;-53
2022/08/02 09:54:24;;;;;;;4.80;1.50;;;25.90;99.90;;;;;;5022114;28;20236;-53
2022/08/02 09:56:57;;;;;;;1.40;1.30;;;26.10;99.90;;;;;;5021338;28;20569;-53
2022/08/02 09:59:25;;;;;;;2.50;1.37;;;26.20;99.90;;;;;;5021087;28;20212;-53
2022/08/02 10:01:54;;;;;;;1.73;1.30;;;26.00;99.90;;;;;;5020329;28;20580;-55
2022/08/02 10:04:31;;;;;;;1.70;1.10;;;25.90;99.90;;;;;;5022048;28;20219;-53
2022/08/02 10:07:03;;;;;;;2.37;1.17;;;25.90;99.90;;;;;;5022057;28;20699;-54
2022/08/02 10:09:31;;;;;;;1.80;1.20;;;26.50;99.90;;;;;;5021151;28;20266;-54
2022/08/02 10:11:59;;;;;;;3.30;1.73;;;26.70;99.90;;;;;;5016776;28;20212;-53
2022/08/02 10:14:27;;;;;;;3.80;1.23;;;26.80;99.90;;;;;;5021336;28;20213;-54
2022/08/02 10:16:57;;;;;;;2.47;1.00;;;26.50;99.90;;;;;;5021061;28;20225;-53
2022/08/02 10:19:24;;;;;;;2.40;1.13;;;26.60;99.90;;;;;;5020603;28;20204;-53
2022/08/02 10:22:13;;;;;;;1.43;1.20;;;26.60;99.90;;;;;;5022021;28;20767;-53
2022/08/02 10:24:41;;;;;;;3.53;1.20;;;26.20;99.90;;;;;;5020812;28;20248;-53
2022/08/02 10:27:18;;;;;;;1.20;1.10;;;26.30;99.90;;;;;;5021560;28;20215;-53
2022/08/02 10:29:48;;;;;;;2.00;1.20;;;26.40;99.90;;;;;;5021055;28;20200;-53
2022/08/02 10:32:28;;;;;;;1.40;1.10;;;25.90;99.90;;;;;;5019935;28;20742;-53
2022/08/02 10:35:23;;;;;;;2.90;0.93;;;26.00;99.90;;;;;;5021871;28;20676;-53
2022/08/02 10:38:00;;;;;;;1.95;1.27;;;26.00;99.90;;;;;;5021175;28;20204;-53
2022/08/02 10:40:50;;;;;;;2.50;1.07;;;26.10;99.90;;;;;;5020161;28;20211;-52
2022/08/02 10:43:43;;;;;;;1.00;0.90;;;26.00;99.90;;;;;;5021068;28;20202;-53
2022/08/02 10:46:22;;;;;;;0.93;0.83;;;25.70;99.90;;;;;;5021204;28;20250;-51
2022/08/02 10:49:11;;;;;;;1.00;0.90;;;25.90;99.90;;;;;;5022198;28;20559;-54
2022/08/02 10:52:05;;;;;;;3.90;1.30;;;26.10;99.90;;;;;;5019661;28;20660;-53
2022/08/02 10:54:38;;;;;;;1.17;1.03;;;26.00;99.90;;;;;;5020161;28;20241;-53
2022/08/02 10:57:23;;;;;;;1.60;1.13;;;26.00;99.90;;;;;;5020569;28;20352;-54
2022/08/02 10:59:53;;;;;;;1.03;0.93;;;25.90;99.90;;;;;;5019794;28;20209;-53
2022/08/02 11:02:40;;;;;;;2.27;1.33;;;26.30;99.90;;;;;;5019779;28;20204;-53
2022/08/02 11:05:14;;;;;;;2.33;1.03;;;26.40;99.90;;;;;;5014023;28;20215;-54
2022/08/02 11:07:47;;;;;;;3.53;1.02;;;26.90;99.90;;;;;;5051656;28;20200;-52
2022/08/02 11:10:37;;;;;;;1.47;0.97;;;27.60;99.90;;;;;;5020437;28;20212;-53
2022/08/02 11:13:12;;;;;;;2.13;0.68;;;27.20;99.90;;;;;;5019998;28;20205;-53
2022/08/02 11:15:49;;;;;;;4.90;1.27;;;27.10;99.90;;;;;;5019520;28;20224;-53
2022/08/02 11:18:16;;;;;;;3.70;0.88;;;27.20;99.90;;;;;;5020074;28;20568;-53
2022/08/02 11:20:43;;;;;;;1.20;0.90;;;27.20;99.90;;;;;;5017239;28;20607;-53
2022/08/02 11:23:32;;;;;;;1.25;0.80;;;27.60;99.90;;;;;;5014778;28;20197;-52
2022/08/02 11:26:29;;;;;;;0.95;0.80;;;27.60;99.90;;;;;;5019157;28;20216;-54
2022/08/02 11:29:03;;;;;;;1.27;0.90;;;27.70;99.90;;;;;;5018148;28;20332;-54
2022/08/02 11:31:39;;;;;;;1.80;0.88;;;27.60;99.90;;;;;;5018175;28;20220;-53
2022/08/02 11:34:06;;;;;;;1.52;0.90;;;27.60;99.90;;;;;;5019214;28;20240;-56
2022/08/02 11:36:49;;;;;;;1.42;1.00;;;27.80;99.90;;;;;;5018122;28;20249;-53
2022/08/02 11:39:18;;;;;;;1.08;0.75;;;27.70;99.90;;;;;;5019710;28;20243;-53
2022/08/02 11:41:55;;;;;;;1.92;0.70;;;28.10;99.90;;;;;;5018299;28;20219;-53
2022/08/02 11:44:26;;;;;;;1.08;0.73;;;29.50;99.90;;;;;;5019469;28;20204;-53
2022/08/02 11:46:57;;;;;;;2.15;0.77;;;28.70;99.90;;;;;;5018426;28;20244;-52
2022/08/02 11:49:25;;;;;;;2.45;0.93;;;28.60;99.90;;;;;;5019718;28;20708;-55
2022/08/02 11:52:04;;;;;;;1.33;0.90;;;28.40;99.90;;;;;;5019449;28;20246;-53
2022/08/02 11:54:34;;;;;;;1.58;0.82;;;28.60;99.90;;;;;;5018731;28;20290;-52
2022/08/02 11:57:13;;;;;;;0.93;0.80;;;29.00;99.90;;;;;;5013437;28;20232;-53
2022/08/02 11:59:50;;;;;;;1.48;0.88;;;28.60;99.90;;;;;;5017743;28;20673;-54
2022/08/02 12:02:22;;;;;;;1.88;0.82;;;28.10;99.90;;;;;;5019002;28;20535;-54
2022/08/02 12:04:53;;;;;;;2.00;1.00;;;28.80;99.90;;;;;;5017203;28;20541;-54
2022/08/02 12:07:32;;;;;;;1.00;0.90;;;28.40;99.90;;;;;;5019924;28;20262;-54
2022/08/02 12:10:03;;;;;;;1.75;1.10;;;28.70;99.90;;;;;;5018130;28;20575;-53
2022/08/02 12:12:30;;;;;;;1.40;0.77;;;29.10;99.90;;;;;;5019432;28;20252;-53
2022/08/02 12:14:57;;;;;;;1.65;0.95;;;28.70;99.90;;;;;;5018796;28;20215;-54
2022/08/02 12:20:14;;;;;;;1.85;0.85;;;29.10;99.90;;;;;;5015374;28;20288;-54
2022/08/02 12:22:40;;;;;;;3.03;1.08;;;28.90;99.90;;;;;;5017875;28;20623;-53
2022/08/02 12:25:21;;;;;;;1.00;0.80;;;29.40;99.90;;;;;;5015077;28;20196;-53
2022/08/02 12:28:14;;;;;;;2.60;0.95;;;29.30;99.90;;;;;;5019928;28;20790;-53
2022/08/02 12:31:12;;;;;;;3.58;1.05;;;29.20;99.90;;;;;;5019030;28;20663;-52
2022/08/02 12:33:50;;;;;;;2.55;0.93;;;28.90;99.90;;;;;;5048308;28;20259;-52
2022/08/02 12:36:26;;;;;;;1.10;0.95;;;29.40;99.90;;;;;;5019778;28;20751;-52
2022/08/02 12:38:58;;;;;;;2.88;0.90;;;29.20;99.90;;;;;;5020062;28;20251;-52
2022/08/02 12:41:28;;;;;;;1.92;1.20;;;29.80;99.90;;;;;;5018921;28;20207;-52
2022/08/02 12:43:59;;;;;;;2.53;1.00;;;29.90;99.90;;;;;;5019765;28;20291;-52
2022/08/02 12:46:26;;;;;;;2.93;1.00;;;29.60;99.90;;;;;;5019680;28;20216;-52
2022/08/02 12:48:53;;;;;;;1.23;0.90;;;29.10;99.90;;;;;;5022800;28;20212;-50
2022/08/02 12:51:40;;;;;;;2.60;0.95;;;29.50;99.90;;;;;;5021718;28;20213;-51
2022/08/02 12:54:26;;;;;;;1.50;1.27;;;30.10;99.90;;;;;;5022046;28;20229;-53
2022/08/02 12:57:08;;;;;;;3.17;1.40;;;30.30;99.90;;;;;;5023191;28;20217;-51
2022/08/02 12:59:38;;;;;;;2.08;0.93;;;30.30;99.90;;;;;;5021724;28;20292;-50
2022/08/02 13:02:12;;;;;;;1.45;1.30;;;29.70;99.90;;;;;;5023384;28;20240;-52
2022/08/02 13:04:40;;;;;;;2.38;0.98;;;28.90;99.90;;;;;;5019632;28;20628;-50
2022/08/02 13:07:16;;;;;;;3.58;1.08;;;29.30;99.90;;;;;;5023372;28;20637;-51
2022/08/02 13:09:44;;;;;;;2.80;0.87;;;29.30;99.90;;;;;;5025184;28;20213;-52
2022/08/02 13:12:11;;;;;;;1.40;1.10;;;29.90;99.90;;;;;;5022883;28;20616;-53
2022/08/02 13:14:39;;;;;;;1.83;1.10;;;30.10;99.90;;;;;;5024511;28;20653;-49